Terminal Aerodrome Forecast
Issued by NWS Buffalo, NY

Home | Current Version | Previous Version | Text Only | Print | Product List | Glossary On
Versions: 1 2 3 4 5 6 7 8 9 10 11 12 13 14 15 16 17 18 19 20 21 22 23 24 25 26 27 28 29 30 31 32 33 34 35
000
FTUS41 KBUF 282000 AAA
TAFBUF
TAF AMD
KBUF 282042Z 2821/2918 26008KT P6SM -SHSN BKN035 OVC050
     FM290100 VRB03KT P6SM VCSH BKN020 OVC050
     FM290500 19007KT P6SM BKN035 BKN060
     FM291500 17007KT 4SM -RASN OVC035=

USA.gov is the U.S. government's official web portal to all federal, state and local government web resources and services.